createdAt,value
2017-07-15T00:00:46.327Z,94.40
2017-07-15T00:03:14.574Z,94.50
2017-07-15T00:05:42.073Z,94.40
2017-07-15T00:08:09.561Z,94.70
2017-07-15T00:10:37.064Z,94.70
2017-07-15T00:13:04.553Z,95.10
2017-07-15T00:15:32.065Z,94.80
2017-07-15T00:17:59.549Z,94.40
2017-07-15T00:20:27.802Z,94.80
2017-07-15T00:22:55.330Z,94.90
2017-07-15T00:25:22.824Z,94.60
2017-07-15T00:27:50.333Z,94.30
2017-07-15T00:30:17.813Z,94.60
2017-07-15T00:32:45.319Z,94.90
2017-07-15T00:35:13.570Z,95.30
2017-07-15T00:37:41.100Z,95.30
2017-07-15T00:40:08.592Z,95.10
2017-07-15T00:42:36.069Z,95.10
2017-07-15T00:45:04.345Z,96.10
2017-07-15T00:47:32.606Z,94.80
2017-07-15T00:50:00.084Z,94.80
2017-07-15T00:52:28.352Z,94.50
2017-07-15T00:54:56.621Z,94.40
2017-07-15T00:57:24.119Z,94.10
2017-07-15T00:59:51.627Z,94.60
2017-07-15T01:02:19.109Z,95.20
2017-07-15T01:04:47.378Z,94.80
2017-07-15T01:07:14.876Z,94.70
2017-07-15T01:09:42.367Z,94.40
2017-07-15T01:12:09.871Z,94.20
2017-07-15T01:14:38.118Z,94.50
2017-07-15T01:17:05.639Z,94.50
2017-07-15T01:19:33.136Z,94.40
2017-07-15T01:22:00.616Z,93.30
2017-07-15T01:24:28.881Z,92.90
2017-07-15T01:26:56.387Z,92.90
2017-07-15T01:29:23.873Z,93.90
2017-07-15T01:31:51.354Z,93.60
2017-07-15T01:34:18.871Z,93.80
2017-07-15T01:36:46.378Z,94.30
2017-07-15T01:39:14.633Z,93.80
2017-07-15T01:41:42.156Z,93.80
2017-07-15T01:44:09.653Z,94.00
2017-07-15T01:46:37.173Z,94.20
2017-07-15T01:49:04.681Z,93.70
2017-07-15T01:51:32.293Z,93.00
2017-07-15T01:53:59.808Z,93.30
2017-07-15T01:56:28.061Z,93.20
2017-07-15T01:58:55.532Z,93.20
2017-07-15T02:01:23.034Z,93.60
2017-07-15T02:03:50.516Z,94.10
2017-07-15T02:06:18.015Z,93.80
2017-07-15T02:08:46.277Z,94.80
2017-07-15T02:11:13.788Z,94.70
2017-07-15T02:13:41.265Z,94.90
2017-07-15T02:16:08.753Z,94.60
2017-07-15T02:18:36.264Z,94.30
2017-07-15T02:21:03.753Z,94.30
2017-07-15T02:23:32.053Z,95.00
2017-07-15T02:25:59.530Z,95.00
2017-07-15T02:28:27.813Z,94.90
2017-07-15T02:30:55.301Z,94.90
2017-07-15T02:33:22.783Z,96.40
2017-07-15T02:35:50.314Z,95.60
2017-07-15T02:38:17.783Z,96.00
2017-07-15T02:40:45.272Z,95.10
2017-07-15T02:43:12.766Z,96.10
2017-07-15T02:45:40.245Z,96.50
2017-07-15T02:48:07.742Z,96.30
2017-07-15T02:50:35.223Z,95.00
2017-07-15T02:53:03.463Z,95.20
2017-07-15T02:55:30.969Z,95.20
2017-07-15T02:57:59.219Z,95.90
2017-07-15T03:00:26.724Z,95.90
2017-07-15T03:02:54.223Z,96.20
2017-07-15T03:05:21.715Z,96.20
2017-07-15T03:07:49.965Z,95.80
2017-07-15T03:10:17.441Z,95.80
2017-07-15T03:12:45.709Z,96.20
2017-07-15T03:15:13.321Z,95.90
2017-07-15T03:17:40.833Z,96.70
2017-07-15T03:20:09.098Z,97.10
2017-07-15T03:22:36.579Z,97.10
2017-07-15T03:25:04.840Z,97.90
2017-07-15T03:27:35.124Z,97.90
2017-07-15T03:30:02.643Z,97.70
2017-07-15T03:32:30.897Z,98.00
2017-07-15T03:34:58.378Z,98.00
2017-07-15T03:37:25.885Z,97.90
2017-07-15T03:39:53.389Z,97.70
2017-07-15T03:42:21.676Z,97.50
2017-07-15T03:44:49.161Z,97.10
2017-07-15T03:47:16.656Z,97.20
2017-07-15T03:49:44.144Z,97.10
2017-07-15T03:52:11.642Z,96.70
2017-07-15T03:54:39.137Z,96.80
2017-07-15T03:57:06.625Z,96.50
2017-07-15T03:59:34.124Z,97.00
2017-07-15T04:02:01.597Z,97.20
2017-07-15T04:04:29.096Z,96.90
2017-07-15T04:06:56.582Z,96.40
2017-07-15T04:09:24.065Z,96.30
2017-07-15T04:11:51.564Z,96.40
2017-07-15T04:14:19.838Z,96.60
2017-07-15T04:16:48.084Z,96.60
2017-07-15T04:19:15.566Z,96.60
2017-07-15T04:21:43.823Z,96.70
2017-07-15T04:24:11.308Z,96.40
2017-07-15T04:26:39.577Z,95.90
2017-07-15T04:29:07.817Z,96.10
2017-07-15T04:31:35.316Z,96.00
2017-07-15T04:34:03.561Z,95.90
2017-07-15T04:36:31.045Z,95.80
2017-07-15T04:38:59.311Z,95.10
2017-07-15T04:41:26.801Z,95.10
2017-07-15T04:43:54.305Z,95.90
2017-07-15T04:46:21.809Z,95.80
2017-07-15T04:48:49.310Z,95.50
2017-07-15T04:51:16.804Z,95.00
2017-07-15T04:53:44.295Z,94.90
2017-07-15T04:56:11.782Z,94.00
2017-07-15T04:58:39.291Z,93.70
2017-07-15T05:01:07.538Z,93.60
2017-07-15T05:03:35.044Z,93.60
2017-07-15T05:06:02.540Z,93.70
2017-07-15T05:08:30.037Z,94.00
2017-07-15T05:10:58.309Z,93.90
2017-07-15T05:13:25.806Z,93.90
2017-07-15T05:15:53.289Z,92.50
2017-07-15T05:18:20.774Z,92.90
2017-07-15T05:20:48.274Z,92.50
2017-07-15T05:23:15.782Z,91.20
2017-07-15T05:25:43.281Z,90.00
2017-07-15T05:28:10.781Z,89.70
2017-07-15T05:30:38.282Z,88.60
2017-07-15T05:33:06.528Z,88.90
2017-07-15T05:35:34.013Z,88.70
2017-07-15T05:38:02.272Z,89.80
2017-07-15T05:40:29.748Z,89.70
2017-07-15T05:42:58.005Z,88.40
2017-07-15T05:45:25.497Z,88.00
2017-07-15T05:47:53.001Z,88.30
2017-07-15T05:50:20.569Z,88.90
2017-07-15T05:52:48.061Z,88.10
2017-07-15T05:55:16.334Z,87.60
2017-07-15T05:57:44.576Z,86.40
2017-07-15T06:00:12.090Z,86.40
2017-07-15T06:02:39.565Z,85.90
2017-07-15T06:05:07.048Z,86.50
2017-07-15T06:07:34.549Z,86.50
2017-07-15T06:10:03.010Z,84.80
2017-07-15T06:12:30.533Z,84.80
2017-07-15T06:14:58.009Z,83.90
2017-07-15T06:17:25.505Z,84.70
2017-07-15T06:19:53.773Z,82.90
2017-07-15T06:22:22.023Z,82.30
2017-07-15T06:24:49.525Z,82.20
2017-07-15T06:27:17.766Z,80.90
2017-07-15T06:29:45.251Z,80.90
2017-07-15T06:32:12.757Z,81.40
2017-07-15T06:34:40.240Z,79.30
2017-07-15T06:37:07.729Z,79.20
2017-07-15T06:39:35.976Z,82.70
2017-07-15T06:42:03.473Z,82.70
2017-07-15T06:44:30.960Z,80.20
2017-07-15T06:46:58.496Z,82.50
2017-07-15T06:49:26.716Z,85.00
2017-07-15T06:51:54.217Z,84.80
2017-07-15T06:54:22.480Z,82.80
2017-07-15T06:56:50.729Z,83.60
2017-07-15T06:59:18.284Z,83.60
2017-07-15T07:01:46.019Z,83.00
2017-07-15T07:04:13.519Z,85.20
2017-07-15T07:06:40.994Z,84.60
2017-07-15T07:09:08.488Z,83.20
2017-07-15T07:11:35.973Z,82.40
2017-07-15T07:14:03.468Z,82.60
2017-07-15T07:16:31.740Z,81.80
2017-07-15T07:19:00.000Z,80.50
2017-07-15T07:21:27.514Z,80.50
2017-07-15T07:23:55.188Z,78.90
2017-07-15T07:26:22.677Z,72.60
2017-07-15T07:28:50.157Z,67.00
2017-07-15T07:31:17.651Z,60.30
2017-07-15T07:33:45.133Z,57.20
2017-07-15T07:36:12.632Z,55.10
2017-07-15T07:38:40.105Z,54.10
2017-07-15T07:41:08.357Z,52.20
2017-07-15T07:43:35.845Z,52.10
2017-07-15T07:46:04.096Z,50.80
2017-07-15T07:48:31.588Z,50.80
2017-07-15T07:50:59.086Z,48.60
2017-07-15T07:53:26.581Z,47.40
2017-07-15T07:55:54.838Z,44.00
2017-07-15T07:58:22.334Z,43.90
2017-07-15T08:00:50.569Z,45.80
2017-07-15T08:03:18.047Z,45.80
2017-07-15T08:05:45.539Z,49.30
2017-07-15T08:08:13.006Z,51.80
2017-07-15T08:10:40.520Z,52.10
2017-07-15T08:13:07.994Z,51.80
2017-07-15T08:15:36.232Z,48.30
2017-07-15T08:18:03.725Z,48.30
2017-07-15T08:20:31.965Z,48.70
2017-07-15T08:22:59.469Z,48.70
2017-07-15T08:25:26.972Z,50.30
2017-07-15T08:27:54.457Z,49.70
2017-07-15T08:30:21.969Z,50.50
2017-07-15T08:32:49.441Z,52.50
2017-07-15T08:35:16.940Z,51.70
2017-07-15T08:37:45.190Z,50.70
2017-07-15T08:40:12.670Z,50.60
2017-07-15T08:42:40.933Z,45.60
2017-07-15T08:45:08.409Z,45.40
2017-07-15T08:47:35.921Z,44.40
2017-07-15T08:50:03.390Z,41.20
2017-07-15T08:52:30.888Z,42.50
2017-07-15T08:54:59.138Z,40.20
2017-07-15T08:57:26.610Z,40.00
2017-07-15T08:59:54.104Z,39.20
2017-07-15T09:02:21.593Z,37.80
2017-07-15T09:04:49.082Z,36.30
2017-07-15T09:07:16.576Z,35.60
2017-07-15T09:09:44.071Z,37.20
2017-07-15T09:12:11.549Z,36.20
2017-07-15T09:14:39.045Z,36.40
2017-07-15T09:17:07.285Z,36.00
2017-07-15T09:19:34.761Z,35.90
2017-07-15T09:22:03.012Z,35.50
2017-07-15T09:24:30.511Z,35.00
2017-07-15T09:26:57.998Z,36.80
2017-07-15T09:29:25.510Z,36.80
2017-07-15T09:31:53.001Z,37.60
2017-07-15T09:34:20.505Z,38.30
2017-07-15T09:36:47.985Z,37.00
2017-07-15T09:39:16.257Z,34.00
2017-07-15T09:41:44.524Z,33.20
2017-07-15T09:44:12.030Z,33.30
2017-07-15T09:46:39.503Z,34.80
2017-07-15T09:49:07.013Z,33.10
2017-07-15T09:51:35.275Z,31.40
2017-07-15T09:54:02.758Z,31.40
2017-07-15T09:56:30.992Z,30.30
2017-07-15T09:58:58.519Z,30.30
2017-07-15T10:01:25.989Z,29.80
2017-07-15T10:03:53.477Z,30.50
2017-07-15T10:06:20.952Z,29.10
2017-07-15T10:08:48.425Z,30.50
2017-07-15T10:11:16.697Z,32.50
2017-07-15T10:13:44.963Z,34.50
2017-07-15T10:16:12.459Z,34.50
2017-07-15T10:18:39.945Z,37.40
2017-07-15T10:21:07.428Z,34.70
2017-07-15T10:23:34.904Z,32.00
2017-07-15T10:26:03.165Z,29.30
2017-07-15T10:28:30.633Z,29.30
2017-07-15T10:30:58.873Z,29.10
2017-07-15T10:33:26.831Z,29.10
2017-07-15T10:35:54.297Z,29.70
2017-07-15T10:38:21.793Z,29.90
2017-07-15T10:40:50.025Z,29.00
2017-07-15T10:43:17.536Z,29.00
2017-07-15T10:45:45.786Z,29.60
2017-07-15T10:48:13.268Z,29.60
2017-07-15T10:50:41.538Z,32.20
2017-07-15T10:53:09.813Z,29.40
2017-07-15T10:55:38.067Z,28.20
2017-07-15T10:58:05.573Z,28.20
2017-07-15T11:00:33.062Z,27.70
2017-07-15T11:03:00.557Z,27.30
2017-07-15T11:05:28.040Z,28.30
2017-07-15T11:07:56.321Z,29.70
2017-07-15T11:10:23.810Z,29.70
2017-07-15T11:12:51.308Z,29.20
2017-07-15T11:15:18.782Z,30.00
2017-07-15T11:17:47.046Z,32.60
2017-07-15T11:20:14.529Z,32.70
2017-07-15T11:22:42.033Z,31.10
2017-07-15T11:25:09.508Z,32.30
2017-07-15T11:27:36.985Z,34.50
2017-07-15T11:30:05.247Z,37.10
2017-07-15T11:32:32.753Z,37.10
2017-07-15T11:35:00.245Z,36.30
2017-07-15T11:37:27.712Z,35.70
2017-07-15T11:39:55.204Z,35.90
2017-07-15T11:42:23.453Z,37.70
2017-07-15T11:44:50.946Z,37.60
2017-07-15T11:47:18.433Z,38.70
2017-07-15T11:49:45.921Z,35.50
2017-07-15T11:52:13.416Z,35.10
2017-07-15T11:54:41.659Z,36.30
2017-07-15T11:57:09.143Z,36.20
2017-07-15T11:59:37.433Z,37.20
2017-07-15T12:02:04.938Z,37.20
2017-07-15T12:04:32.435Z,38.20
2017-07-15T12:07:00.749Z,38.80
2017-07-15T12:09:28.252Z,38.80
2017-07-15T12:11:55.767Z,37.90
2017-07-15T12:14:23.237Z,38.90
2017-07-15T12:16:50.747Z,37.90
2017-07-15T12:19:18.994Z,37.70
2017-07-15T12:21:46.487Z,37.00
2017-07-15T12:24:14.729Z,36.00
2017-07-15T12:26:42.230Z,35.90
2017-07-15T12:29:09.712Z,36.10
2017-07-15T12:31:37.201Z,36.30
2017-07-15T12:34:04.681Z,36.80
2017-07-15T12:36:32.931Z,37.40
2017-07-15T12:39:00.422Z,37.50
2017-07-15T12:41:27.916Z,37.00
2017-07-15T12:43:55.406Z,38.50
2017-07-15T12:46:22.879Z,38.90
2017-07-15T12:48:50.364Z,38.00
2017-07-15T12:51:18.615Z,37.20
2017-07-15T12:53:46.157Z,37.10
2017-07-15T12:56:13.629Z,38.60
2017-07-15T12:58:41.141Z,37.10
2017-07-15T13:01:08.637Z,36.40
2017-07-15T13:03:36.112Z,36.80
2017-07-15T13:06:04.406Z,36.80
2017-07-15T13:08:32.661Z,37.30
2017-07-15T13:11:00.177Z,37.20
2017-07-15T13:13:27.644Z,35.10
2017-07-15T13:15:55.257Z,37.30
2017-07-15T13:18:23.515Z,37.30
2017-07-15T13:20:52.502Z,39.80
2017-07-15T13:23:19.986Z,39.70
2017-07-15T13:25:48.226Z,37.50
2017-07-15T13:28:15.722Z,37.50
2017-07-15T13:30:43.985Z,36.40
2017-07-15T13:33:12.231Z,39.00
2017-07-15T13:35:39.769Z,39.60
2017-07-15T13:38:07.259Z,37.80
2017-07-15T13:40:34.749Z,39.70
2017-07-15T13:43:02.993Z,38.80
2017-07-15T13:45:30.472Z,38.80
2017-07-15T13:47:58.746Z,38.70
2017-07-15T13:50:26.217Z,38.70
2017-07-15T13:52:54.489Z,40.20
2017-07-15T13:55:22.735Z,39.20
2017-07-15T13:57:50.229Z,39.20
2017-07-15T14:00:18.469Z,39.60
2017-07-15T14:02:45.978Z,39.50
2017-07-15T14:05:13.481Z,38.70
2017-07-15T14:07:40.965Z,38.20
2017-07-15T14:10:08.470Z,39.70
2017-07-15T14:12:35.980Z,39.90
2017-07-15T14:15:04.233Z,40.10
2017-07-15T14:17:31.718Z,40.00
2017-07-15T14:19:59.958Z,37.50
2017-07-15T14:22:27.447Z,37.50
2017-07-15T14:24:55.713Z,39.10
2017-07-15T14:27:23.186Z,39.10
2017-07-15T14:29:51.429Z,41.00
2017-07-15T14:32:18.926Z,40.40
2017-07-15T14:34:47.172Z,40.30
2017-07-15T14:37:14.668Z,40.20
2017-07-15T14:39:42.920Z,40.60
2017-07-15T14:42:10.431Z,40.60
2017-07-15T14:44:37.942Z,41.10
2017-07-15T14:47:05.443Z,40.20
2017-07-15T14:49:32.921Z,40.30
2017-07-15T14:52:00.436Z,41.50
2017-07-15T14:54:28.699Z,41.10
2017-07-15T14:56:56.941Z,39.60
2017-07-15T14:59:24.438Z,39.50
2017-07-15T15:01:52.680Z,39.70
2017-07-15T15:04:20.162Z,39.60
2017-07-15T15:06:47.657Z,39.60
2017-07-15T15:09:15.128Z,40.40
2017-07-15T15:11:42.619Z,40.00
2017-07-15T15:14:10.094Z,40.10
2017-07-15T15:16:38.341Z,39.20
2017-07-15T15:19:05.831Z,39.70
2017-07-15T15:21:34.112Z,41.20
2017-07-15T15:24:02.353Z,40.40
2017-07-15T15:26:29.845Z,40.40
2017-07-15T15:28:57.330Z,39.10
2017-07-15T15:31:24.836Z,39.70
2017-07-15T15:33:52.329Z,40.10
2017-07-15T15:36:20.631Z,39.10
2017-07-15T15:38:48.306Z,39.10
2017-07-15T15:41:15.971Z,39.00
2017-07-15T15:43:43.473Z,36.90
2017-07-15T15:46:10.984Z,37.30
2017-07-15T15:48:38.485Z,38.60
2017-07-15T15:51:06.003Z,39.70
2017-07-15T15:53:33.479Z,40.00
2017-07-15T15:56:01.019Z,39.80
2017-07-15T15:58:28.535Z,41.80
2017-07-15T16:00:56.790Z,42.20
2017-07-15T16:03:24.286Z,42.20
2017-07-15T16:05:51.773Z,41.40
2017-07-15T16:08:19.261Z,42.40
2017-07-15T16:10:46.744Z,41.60
2017-07-15T16:13:15.015Z,43.10
2017-07-15T16:15:43.262Z,43.20
2017-07-15T16:18:10.757Z,42.50
2017-07-15T16:20:39.001Z,42.30
2017-07-15T16:23:06.489Z,42.30
2017-07-15T16:25:34.754Z,42.00
2017-07-15T16:28:02.229Z,41.80
2017-07-15T16:30:30.506Z,43.30
2017-07-15T16:32:58.749Z,42.90
2017-07-15T16:35:26.257Z,42.90
2017-07-15T16:37:53.737Z,42.90
2017-07-15T16:40:21.217Z,42.70
2017-07-15T16:42:48.719Z,43.00
2017-07-15T16:45:16.201Z,42.40
2017-07-15T16:47:43.701Z,42.00
2017-07-15T16:50:11.176Z,42.40
2017-07-15T16:52:38.668Z,43.30
2017-07-15T16:55:06.176Z,43.50
2017-07-15T16:57:33.644Z,44.50
2017-07-15T17:00:01.295Z,43.70
2017-07-15T17:02:28.757Z,44.30
2017-07-15T17:04:56.284Z,44.00
2017-07-15T17:07:23.766Z,43.20
2017-07-15T17:09:51.285Z,43.90
2017-07-15T17:12:18.793Z,43.00
2017-07-15T17:14:46.302Z,43.60
2017-07-15T17:17:13.786Z,44.00
2017-07-15T17:19:41.272Z,42.70
2017-07-15T17:22:08.756Z,43.30
2017-07-15T17:24:38.362Z,43.10
2017-07-15T17:27:06.597Z,43.00
2017-07-15T17:29:35.021Z,43.00
2017-07-15T17:32:03.272Z,43.00
2017-07-15T17:34:30.757Z,44.00
2017-07-15T17:36:58.259Z,44.00
2017-07-15T17:39:25.730Z,44.90
2017-07-15T17:41:53.234Z,45.20
2017-07-15T17:44:20.723Z,45.60
2017-07-15T17:46:48.206Z,46.90
2017-07-15T17:49:15.708Z,46.60
2017-07-15T17:51:43.190Z,46.30
2017-07-15T17:54:10.715Z,46.20
2017-07-15T17:56:38.377Z,47.00
2017-07-15T17:59:05.867Z,46.30
2017-07-15T18:01:33.368Z,46.30
2017-07-15T18:04:00.845Z,46.60
2017-07-15T18:06:28.374Z,46.70
2017-07-15T18:08:55.854Z,46.80
2017-07-15T18:11:23.326Z,46.70
2017-07-15T18:13:50.857Z,47.90
2017-07-15T18:16:18.344Z,48.30
2017-07-15T18:18:45.849Z,47.60
2017-07-15T18:21:13.353Z,47.70
2017-07-15T18:23:40.852Z,48.20
2017-07-15T18:26:08.346Z,47.80
2017-07-15T18:28:36.000Z,47.70
2017-07-15T18:31:03.507Z,49.10
2017-07-15T18:33:31.012Z,49.30
2017-07-15T18:35:58.522Z,48.70
2017-07-15T18:38:26.339Z,50.80
2017-07-15T18:40:53.988Z,51.10
2017-07-15T18:43:21.509Z,50.00
2017-07-15T18:45:48.997Z,49.20
2017-07-15T18:48:16.532Z,49.40
2017-07-15T18:50:44.117Z,48.70
2017-07-15T18:53:11.637Z,48.80
2017-07-15T18:55:39.162Z,50.00
2017-07-15T18:58:06.661Z,49.80
2017-07-15T19:00:34.925Z,48.40
2017-07-15T19:03:03.177Z,49.00
2017-07-15T19:05:30.691Z,48.90
2017-07-15T19:07:58.166Z,49.20
2017-07-15T19:10:25.896Z,50.00
2017-07-15T19:12:54.552Z,50.00
2017-07-15T19:15:23.360Z,50.00
2017-07-15T19:17:52.457Z,51.20
2017-07-15T19:20:20.697Z,52.20
2017-07-15T19:22:48.205Z,52.20
2017-07-15T19:25:15.807Z,52.40
2017-07-15T19:27:43.292Z,53.10
2017-07-15T19:30:10.786Z,52.90
2017-07-15T19:32:38.265Z,54.30
2017-07-15T19:35:05.747Z,54.20
2017-07-15T19:37:33.259Z,54.10
2017-07-15T19:40:00.742Z,55.10
2017-07-15T19:42:28.234Z,55.90
2017-07-15T19:44:55.716Z,54.80
2017-07-15T19:47:23.986Z,55.70
2017-07-15T19:49:52.318Z,56.40
2017-07-15T19:52:19.814Z,56.30
2017-07-15T19:54:47.290Z,56.70
2017-07-15T19:57:16.241Z,57.50
2017-07-15T19:59:43.718Z,57.30
2017-07-15T20:02:11.344Z,58.40
2017-07-15T20:04:38.819Z,58.30
2017-07-15T20:07:06.320Z,58.40
2017-07-15T20:09:34.601Z,59.30
2017-07-15T20:12:02.866Z,59.40
2017-07-15T20:14:31.132Z,59.70
2017-07-15T20:16:59.377Z,60.50
2017-07-15T20:19:26.905Z,59.80
2017-07-15T20:21:54.397Z,60.00
2017-07-15T20:24:21.915Z,60.10
2017-07-15T20:26:49.405Z,60.10
2017-07-15T20:29:16.913Z,60.10
2017-07-15T20:31:45.187Z,59.80
2017-07-15T20:34:13.461Z,59.80
2017-07-15T20:36:47.631Z,59.80
2017-07-15T20:39:15.108Z,59.70
2017-07-15T20:41:42.598Z,60.30
2017-07-15T20:44:10.901Z,59.90
2017-07-15T20:46:38.400Z,59.80
2017-07-15T20:49:07.189Z,60.00
2017-07-15T20:51:34.668Z,60.40
2017-07-15T20:54:08.605Z,61.80
2017-07-15T20:56:36.105Z,61.70
2017-07-15T20:59:03.611Z,63.80
2017-07-15T21:01:31.887Z,63.20
2017-07-15T21:04:00.151Z,63.30
2017-07-15T21:06:28.631Z,63.20
2017-07-15T21:08:56.989Z,66.50
2017-07-15T21:11:24.565Z,66.50
2017-07-15T21:13:52.834Z,65.50
2017-07-15T21:16:21.086Z,65.50
2017-07-15T21:18:48.875Z,65.50
2017-07-15T21:21:16.355Z,66.80
2017-07-15T21:23:44.620Z,67.20
2017-07-15T21:26:12.876Z,68.60
2017-07-15T21:28:40.375Z,67.70
2017-07-15T21:31:07.975Z,66.80
2017-07-15T21:33:35.480Z,66.20
2017-07-15T21:36:03.741Z,66.30
2017-07-15T21:38:31.238Z,66.20
2017-07-15T21:40:58.744Z,67.10
2017-07-15T21:43:26.235Z,68.10
2017-07-15T21:45:54.529Z,69.40
2017-07-15T21:48:22.013Z,69.40
2017-07-15T21:50:49.531Z,70.60
2017-07-15T21:53:17.848Z,72.00
2017-07-15T21:55:45.325Z,71.90
2017-07-15T21:58:12.825Z,72.20
2017-07-15T22:00:41.088Z,74.40
2017-07-15T22:03:09.331Z,74.90
2017-07-15T22:05:36.839Z,74.80
2017-07-15T22:08:05.079Z,75.40
2017-07-15T22:10:32.610Z,75.40
2017-07-15T22:13:00.088Z,76.60
2017-07-15T22:15:27.597Z,77.40
2017-07-15T22:17:55.101Z,77.20
2017-07-15T22:20:22.583Z,76.90
2017-07-15T22:22:50.057Z,77.20
2017-07-15T22:25:18.330Z,78.00
2017-07-15T22:27:46.601Z,78.20
2017-07-15T22:30:14.086Z,79.00
2017-07-15T22:32:41.561Z,78.40
2017-07-15T22:35:09.070Z,79.40
2017-07-15T22:37:36.549Z,78.70
2017-07-15T22:40:04.802Z,81.00
2017-07-15T22:42:32.324Z,81.00
2017-07-15T22:44:59.798Z,81.20
2017-07-15T22:47:27.308Z,81.40
2017-07-15T22:49:55.574Z,80.40
2017-07-15T22:52:23.821Z,79.80
2017-07-15T22:54:51.313Z,79.80
2017-07-15T22:57:19.557Z,81.10
2017-07-15T22:59:47.093Z,80.90
2017-07-15T23:02:14.573Z,83.00
2017-07-15T23:04:42.057Z,83.30
2017-07-15T23:07:10.318Z,83.00
2017-07-15T23:09:37.797Z,83.00
2017-07-15T23:12:06.075Z,83.60
2017-07-15T23:14:34.322Z,84.10
2017-07-15T23:17:01.810Z,84.00
2017-07-15T23:19:30.053Z,84.50
2017-07-15T23:21:57.545Z,84.40
2017-07-15T23:24:25.858Z,84.80
2017-07-15T23:26:53.357Z,84.80
2017-07-15T23:29:20.849Z,85.90
2017-07-15T23:31:48.326Z,86.20
2017-07-15T23:34:15.821Z,87.10
2017-07-15T23:36:43.314Z,87.50
2017-07-15T23:39:11.626Z,87.30
2017-07-15T23:41:39.114Z,87.20
2017-07-15T23:44:06.644Z,86.50
2017-07-15T23:46:34.133Z,87.20
2017-07-15T23:49:01.613Z,87.20
2017-07-15T23:51:29.873Z,87.10
2017-07-15T23:53:57.382Z,87.10
2017-07-15T23:56:24.873Z,87.50
2017-07-15T23:58:52.397Z,86.80
